sensor_id;sensor_type;location;lat;lon;timestamp;pressure;altitude;pressure_sealevel;temperature;humidity
40948;BME280;49382;-25.924;28.194;2023-05-02T00:00:39;85349.75;;;19.07;42.43
40948;BME280;49382;-25.924;28.194;2023-05-02T00:03:04;85347.14;;;19.25;42.19
40948;BME280;49382;-25.924;28.194;2023-05-02T00:05:30;85345.52;;;19.34;42.15
40948;BME280;49382;-25.924;28.194;2023-05-02T00:07:56;85344.11;;;19.19;42.13
40948;BME280;49382;-25.924;28.194;2023-05-02T00:10:20;85341.62;;;19.15;42.51
40948;BME280;49382;-25.924;28.194;2023-05-02T00:12:46;85341.98;;;19.08;42.41
40948;BME280;49382;-25.924;28.194;2023-05-02T00:15:11;85344.39;;;19.13;43.05
40948;BME280;49382;-25.924;28.194;2023-05-02T00:17:39;85342.60;;;19.35;42.07
40948;BME280;49382;-25.924;28.194;2023-05-02T00:20:02;85341.57;;;19.03;41.96
40948;BME280;49382;-25.924;28.194;2023-05-02T00:22:26;85344.04;;;19.12;41.99
40948;BME280;49382;-25.924;28.194;2023-05-02T00:24:55;85346.73;;;19.34;42.02
40948;BME280;49382;-25.924;28.194;2023-05-02T00:27:17;85349.92;;;19.14;42.25
40948;BME280;49382;-25.924;28.194;2023-05-02T00:29:43;85348.66;;;19.25;42.04
40948;BME280;49382;-25.924;28.194;2023-05-02T00:32:08;85347.02;;;19.11;41.05
40948;BME280;49382;-25.924;28.194;2023-05-02T00:34:33;85346.73;;;18.93;42.14
40948;BME280;49382;-25.924;28.194;2023-05-02T00:36:59;85347.60;;;19.35;41.49
40948;BME280;49382;-25.924;28.194;2023-05-02T00:39:25;85349.45;;;19.90;40.85
40948;BME280;49382;-25.924;28.194;2023-05-02T00:41:56;85346.17;;;19.02;41.24
40948;BME280;49382;-25.924;28.194;2023-05-02T00:44:15;85342.66;;;19.35;41.31
40948;BME280;49382;-25.924;28.194;2023-05-02T00:46:40;85341.29;;;19.67;40.78
40948;BME280;49382;-25.924;28.194;2023-05-02T00:49:05;85336.79;;;18.80;42.04
40948;BME280;49382;-25.924;28.194;2023-05-02T00:51:32;85333.72;;;19.45;41.91
40948;BME280;49382;-25.924;28.194;2023-05-02T00:53:56;85339.14;;;19.16;40.79
40948;BME280;49382;-25.924;28.194;2023-05-02T00:56:20;85334.61;;;18.81;42.51
40948;BME280;49382;-25.924;28.194;2023-05-02T00:58:46;85332.56;;;19.54;42.03
40948;BME280;49382;-25.924;28.194;2023-05-02T01:01:23;85336.29;;;19.39;41.71
40948;BME280;49382;-25.924;28.194;2023-05-02T01:03:43;85334.50;;;19.92;40.95
40948;BME280;49382;-25.924;28.194;2023-05-02T01:06:10;85331.77;;;20.02;40.29
40948;BME280;49382;-25.924;28.194;2023-05-02T01:08:33;85331.66;;;19.74;40.69
40948;BME280;49382;-25.924;28.194;2023-05-02T01:10:56;85331.65;;;19.91;40.08
40948;BME280;49382;-25.924;28.194;2023-05-02T01:13:21;85329.98;;;19.26;40.47
40948;BME280;49382;-25.924;28.194;2023-05-02T01:15:43;85326.57;;;18.85;40.80
40948;BME280;49382;-25.924;28.194;2023-05-02T01:18:09;85324.81;;;19.25;40.87
40948;BME280;49382;-25.924;28.194;2023-05-02T01:20:36;85322.06;;;19.46;40.57
40948;BME280;49382;-25.924;28.194;2023-05-02T01:23:05;85321.01;;;19.21;40.32
40948;BME280;49382;-25.924;28.194;2023-05-02T01:25:30;85323.62;;;19.52;40.02
40948;BME280;49382;-25.924;28.194;2023-05-02T01:28:00;85323.97;;;19.12;40.25
40948;BME280;49382;-25.924;28.194;2023-05-02T01:30:17;85321.02;;;19.83;39.94
40948;BME280;49382;-25.924;28.194;2023-05-02T01:32:41;85323.43;;;19.56;40.04
40948;BME280;49382;-25.924;28.194;2023-05-02T01:35:07;85320.42;;;19.05;40.26
40948;BME280;49382;-25.924;28.194;2023-05-02T01:37:31;85319.42;;;18.67;40.34
40948;BME280;49382;-25.924;28.194;2023-05-02T01:39:56;85322.18;;;18.57;41.44
40948;BME280;49382;-25.924;28.194;2023-05-02T01:42:22;85317.76;;;19.46;40.62
40948;BME280;49382;-25.924;28.194;2023-05-02T01:44:48;85311.91;;;18.48;41.74
40948;BME280;49382;-25.924;28.194;2023-05-02T01:47:13;85312.81;;;18.89;41.65
40948;BME280;49382;-25.924;28.194;2023-05-02T01:49:38;85309.81;;;18.83;41.35
40948;BME280;49382;-25.924;28.194;2023-05-02T01:52:05;85304.81;;;18.44;42.05
40948;BME280;49382;-25.924;28.194;2023-05-02T01:54:29;85306.03;;;18.37;42.39
40948;BME280;49382;-25.924;28.194;2023-05-02T01:56:54;85311.69;;;19.21;41.31
40948;BME280;49382;-25.924;28.194;2023-05-02T01:59:20;85318.46;;;19.22;41.00
40948;BME280;49382;-25.924;28.194;2023-05-02T02:01:44;85318.11;;;20.01;40.41
40948;BME280;49382;-25.924;28.194;2023-05-02T02:04:12;85315.42;;;20.34;40.07
40948;BME280;49382;-25.924;28.194;2023-05-02T02:06:35;85317.13;;;19.32;41.15
40948;BME280;49382;-25.924;28.194;2023-05-02T02:09:01;85317.85;;;19.12;40.69
40948;BME280;49382;-25.924;28.194;2023-05-02T02:11:28;85321.19;;;19.18;41.11
40948;BME280;49382;-25.924;28.194;2023-05-02T02:13:57;85318.37;;;19.23;41.12
40948;BME280;49382;-25.924;28.194;2023-05-02T02:16:22;85317.26;;;19.43;41.47
40948;BME280;49382;-25.924;28.194;2023-05-02T02:18:42;85320.65;;;19.44;41.09
40948;BME280;49382;-25.924;28.194;2023-05-02T02:21:09;85321.98;;;19.55;40.55
40948;BME280;49382;-25.924;28.194;2023-05-02T02:23:33;85318.11;;;19.59;40.41
40948;BME280;49382;-25.924;28.194;2023-05-02T02:25:58;85318.65;;;19.83;40.29
40948;BME280;49382;-25.924;28.194;2023-05-02T02:28:23;85313.77;;;19.43;40.29
40948;BME280;49382;-25.924;28.194;2023-05-02T02:30:48;85317.10;;;18.59;41.69
40948;BME280;49382;-25.924;28.194;2023-05-02T02:33:13;85320.85;;;18.74;41.40
40948;BME280;49382;-25.924;28.194;2023-05-02T02:35:42;85325.17;;;19.12;40.87
40948;BME280;49382;-25.924;28.194;2023-05-02T02:38:09;85326.05;;;19.52;40.32
40948;BME280;49382;-25.924;28.194;2023-05-02T02:40:31;85328.35;;;19.48;40.43
40948;BME280;49382;-25.924;28.194;2023-05-02T02:43:02;85327.20;;;19.48;40.19
40948;BME280;49382;-25.924;28.194;2023-05-02T02:45:29;85322.12;;;19.14;40.99
40948;BME280;49382;-25.924;28.194;2023-05-02T02:47:53;85321.73;;;19.24;41.04
40948;BME280;49382;-25.924;28.194;2023-05-02T02:50:16;85320.83;;;19.55;40.52
40948;BME280;49382;-25.924;28.194;2023-05-02T02:52:43;85318.62;;;19.40;41.64
40948;BME280;49382;-25.924;28.194;2023-05-02T02:55:08;85319.07;;;19.50;41.55
40948;BME280;49382;-25.924;28.194;2023-05-02T02:57:35;85319.36;;;19.09;41.50
40948;BME280;49382;-25.924;28.194;2023-05-02T02:59:58;85322.54;;;19.35;41.16
40948;BME280;49382;-25.924;28.194;2023-05-02T03:02:19;85314.07;;;18.86;41.30
40948;BME280;49382;-25.924;28.194;2023-05-02T03:04:45;85319.12;;;19.57;40.79
40948;BME280;49382;-25.924;28.194;2023-05-02T03:07:09;85322.49;;;19.60;40.85
40948;BME280;49382;-25.924;28.194;2023-05-02T03:09:40;85322.37;;;20.11;40.50
40948;BME280;49382;-25.924;28.194;2023-05-02T03:12:00;85320.80;;;19.84;40.96
40948;BME280;49382;-25.924;28.194;2023-05-02T03:14:25;85320.72;;;19.86;41.28
40948;BME280;49382;-25.924;28.194;2023-05-02T03:16:51;85324.31;;;19.11;42.35
40948;BME280;49382;-25.924;28.194;2023-05-02T03:19:16;85325.02;;;19.11;42.41
40948;BME280;49382;-25.924;28.194;2023-05-02T03:21:41;85326.13;;;19.09;42.26
40948;BME280;49382;-25.924;28.194;2023-05-02T03:24:07;85330.73;;;19.03;41.70
40948;BME280;49382;-25.924;28.194;2023-05-02T03:26:32;85333.68;;;18.88;41.45
40948;BME280;49382;-25.924;28.194;2023-05-02T03:28:58;85337.20;;;19.29;41.07
40948;BME280;49382;-25.924;28.194;2023-05-02T03:31:23;85340.05;;;19.36;40.83
40948;BME280;49382;-25.924;28.194;2023-05-02T03:33:49;85342.38;;;19.32;41.35
40948;BME280;49382;-25.924;28.194;2023-05-02T03:36:14;85344.11;;;19.66;40.96
40948;BME280;49382;-25.924;28.194;2023-05-02T03:38:39;85343.51;;;19.33;41.67
40948;BME280;49382;-25.924;28.194;2023-05-02T03:41:04;85346.17;;;19.25;41.88
40948;BME280;49382;-25.924;28.194;2023-05-02T03:43:30;85353.73;;;18.97;42.60
40948;BME280;49382;-25.924;28.194;2023-05-02T03:45:56;85356.30;;;18.85;42.94
40948;BME280;49382;-25.924;28.194;2023-05-02T03:48:21;85356.44;;;18.22;43.60
40948;BME280;49382;-25.924;28.194;2023-05-02T03:50:47;85358.34;;;18.76;43.04
40948;BME280;49382;-25.924;28.194;2023-05-02T03:53:13;85363.35;;;18.81;42.50
40948;BME280;49382;-25.924;28.194;2023-05-02T03:55:39;85369.86;;;18.66;42.68
40948;BME280;49382;-25.924;28.194;2023-05-02T03:58:03;85368.33;;;19.35;41.64
40948;BME280;49382;-25.924;28.194;2023-05-02T04:00:28;85371.24;;;19.40;41.09
40948;BME280;49382;-25.924;28.194;2023-05-02T04:02:53;85374.48;;;19.37;41.79
40948;BME280;49382;-25.924;28.194;2023-05-02T04:05:19;85379.90;;;18.73;41.91
40948;BME280;49382;-25.924;28.194;2023-05-02T04:07:44;85374.82;;;19.11;41.57
40948;BME280;49382;-25.924;28.194;2023-05-02T04:10:10;85376.81;;;19.42;41.35
40948;BME280;49382;-25.924;28.194;2023-05-02T04:12:35;85378.63;;;19.09;41.81
40948;BME280;49382;-25.924;28.194;2023-05-02T04:15:02;85376.75;;;19.83;41.55
40948;BME280;49382;-25.924;28.194;2023-05-02T04:17:26;85375.12;;;19.43;41.18
40948;BME280;49382;-25.924;28.194;2023-05-02T04:19:52;85380.54;;;19.67;40.75
40948;BME280;49382;-25.924;28.194;2023-05-02T04:22:17;85380.81;;;19.48;40.52
40948;BME280;49382;-25.924;28.194;2023-05-02T04:24:42;85381.56;;;19.66;39.96
40948;BME280;49382;-25.924;28.194;2023-05-02T04:27:07;85383.51;;;19.53;40.02
40948;BME280;49382;-25.924;28.194;2023-05-02T04:29:33;85390.33;;;20.32;39.77
40948;BME280;49382;-25.924;28.194;2023-05-02T04:31:58;85390.25;;;19.71;40.37
40948;BME280;49382;-25.924;28.194;2023-05-02T04:34:24;85395.91;;;20.23;39.58
40948;BME280;49382;-25.924;28.194;2023-05-02T04:36:48;85395.94;;;19.76;39.98
40948;BME280;49382;-25.924;28.194;2023-05-02T04:39:14;85397.93;;;19.87;40.28
40948;BME280;49382;-25.924;28.194;2023-05-02T04:41:39;85404.40;;;19.58;40.66
40948;BME280;49382;-25.924;28.194;2023-05-02T04:44:04;85406.59;;;19.94;40.41
40948;BME280;49382;-25.924;28.194;2023-05-02T04:46:30;85410.61;;;20.12;40.46
40948;BME280;49382;-25.924;28.194;2023-05-02T04:48:55;85408.14;;;19.57;40.78
40948;BME280;49382;-25.924;28.194;2023-05-02T04:51:20;85412.28;;;19.36;41.15
40948;BME280;49382;-25.924;28.194;2023-05-02T04:53:45;85413.45;;;19.64;41.22
40948;BME280;49382;-25.924;28.194;2023-05-02T04:56:11;85416.76;;;19.84;40.42
40948;BME280;49382;-25.924;28.194;2023-05-02T04:58:37;85416.59;;;19.50;40.86
40948;BME280;49382;-25.924;28.194;2023-05-02T05:01:02;85412.28;;;19.62;41.23
40948;BME280;49382;-25.924;28.194;2023-05-02T05:03:27;85414.74;;;19.76;40.87
40948;BME280;49382;-25.924;28.194;2023-05-02T05:05:52;85417.91;;;20.34;40.56
40948;BME280;49382;-25.924;28.194;2023-05-02T05:08:18;85418.25;;;19.79;40.76
40948;BME280;49382;-25.924;28.194;2023-05-02T05:10:43;85423.27;;;19.60;40.61
40948;BME280;49382;-25.924;28.194;2023-05-02T05:13:09;85426.50;;;19.88;40.82
40948;BME280;49382;-25.924;28.194;2023-05-02T05:15:34;85429.21;;;20.09;40.45
40948;BME280;49382;-25.924;28.194;2023-05-02T05:18:01;85433.86;;;20.22;40.26
40948;BME280;49382;-25.924;28.194;2023-05-02T05:20:25;85440.58;;;20.41;40.45
40948;BME280;49382;-25.924;28.194;2023-05-02T05:22:50;85439.26;;;20.15;41.24
40948;BME280;49382;-25.924;28.194;2023-05-02T05:25:16;85442.56;;;20.05;41.03
40948;BME280;49382;-25.924;28.194;2023-05-02T05:27:42;85447.40;;;20.51;40.48
40948;BME280;49382;-25.924;28.194;2023-05-02T05:30:08;85450.94;;;20.37;41.50
40948;BME280;49382;-25.924;28.194;2023-05-02T05:32:33;85455.80;;;20.87;40.86
40948;BME280;49382;-25.924;28.194;2023-05-02T05:34:57;85459.49;;;20.96;40.46
40948;BME280;49382;-25.924;28.194;2023-05-02T05:37:22;85465.76;;;21.37;40.40
40948;BME280;49382;-25.924;28.194;2023-05-02T05:39:48;85467.51;;;21.82;40.87
40948;BME280;49382;-25.924;28.194;2023-05-02T05:42:12;85472.33;;;21.64;40.20
40948;BME280;49382;-25.924;28.194;2023-05-02T05:44:38;85475.30;;;21.52;40.02
40948;BME280;49382;-25.924;28.194;2023-05-02T05:47:04;85481.44;;;21.68;40.63
40948;BME280;49382;-25.924;28.194;2023-05-02T05:49:29;85488.96;;;21.95;39.40
40948;BME280;49382;-25.924;28.194;2023-05-02T05:51:54;85491.90;;;21.93;39.91
40948;BME280;49382;-25.924;28.194;2023-05-02T05:54:19;85496.40;;;21.93;40.26
40948;BME280;49382;-25.924;28.194;2023-05-02T05:56:44;85498.61;;;22.67;39.35
40948;BME280;49382;-25.924;28.194;2023-05-02T05:59:10;85498.16;;;22.56;39.07
40948;BME280;49382;-25.924;28.194;2023-05-02T06:01:35;85497.34;;;22.58;38.11
40948;BME280;49382;-25.924;28.194;2023-05-02T06:04:00;85497.83;;;22.89;37.00
40948;BME280;49382;-25.924;28.194;2023-05-02T06:06:25;85502.36;;;22.36;37.72
40948;BME280;49382;-25.924;28.194;2023-05-02T06:08:51;85502.59;;;22.65;37.52
40948;BME280;49382;-25.924;28.194;2023-05-02T06:11:16;85504.57;;;22.50;37.72
40948;BME280;49382;-25.924;28.194;2023-05-02T06:13:41;85507.67;;;23.09;36.51
40948;BME280;49382;-25.924;28.194;2023-05-02T06:16:07;85510.92;;;23.12;37.66
40948;BME280;49382;-25.924;28.194;2023-05-02T06:18:32;85510.85;;;23.28;37.88
40948;BME280;49382;-25.924;28.194;2023-05-02T06:21:03;85510.96;;;22.88;38.34
40948;BME280;49382;-25.924;28.194;2023-05-02T06:23:23;85513.58;;;22.93;37.89
40948;BME280;49382;-25.924;28.194;2023-05-02T06:25:49;85518.23;;;23.24;37.55
40948;BME280;49382;-25.924;28.194;2023-05-02T06:28:14;85519.38;;;22.48;38.26
40948;BME280;49382;-25.924;28.194;2023-05-02T06:30:39;85520.98;;;22.84;37.83
40948;BME280;49382;-25.924;28.194;2023-05-02T06:33:05;85521.76;;;23.02;38.03
40948;BME280;49382;-25.924;28.194;2023-05-02T06:35:31;85530.23;;;22.48;38.66
40948;BME280;49382;-25.924;28.194;2023-05-02T06:37:56;85534.01;;;22.66;39.19
40948;BME280;49382;-25.924;28.194;2023-05-02T06:40:22;85530.77;;;23.08;38.26
40948;BME280;49382;-25.924;28.194;2023-05-02T06:42:47;85531.39;;;23.40;39.19
40948;BME280;49382;-25.924;28.194;2023-05-02T06:45:13;85536.16;;;23.42;38.69
40948;BME280;49382;-25.924;28.194;2023-05-02T06:47:39;85536.99;;;24.31;37.37
40948;BME280;49382;-25.924;28.194;2023-05-02T06:50:05;85536.48;;;24.38;37.32
40948;BME280;49382;-25.924;28.194;2023-05-02T06:52:30;85535.59;;;24.40;36.99
40948;BME280;49382;-25.924;28.194;2023-05-02T06:54:56;85533.00;;;24.72;36.66
40948;BME280;49382;-25.924;28.194;2023-05-02T06:57:21;85534.46;;;24.44;37.61
40948;BME280;49382;-25.924;28.194;2023-05-02T06:59:47;85538.70;;;23.83;37.51
40948;BME280;49382;-25.924;28.194;2023-05-02T07:02:13;85538.89;;;24.60;36.18
40948;BME280;49382;-25.924;28.194;2023-05-02T07:04:38;85542.76;;;24.18;36.47
40948;BME280;49382;-25.924;28.194;2023-05-02T07:07:04;85542.22;;;25.66;34.53
40948;BME280;49382;-25.924;28.194;2023-05-02T07:09:29;85546.01;;;26.31;33.99
40948;BME280;49382;-25.924;28.194;2023-05-02T07:11:55;85545.19;;;27.33;33.00
40948;BME280;49382;-25.924;28.194;2023-05-02T07:14:21;85543.96;;;27.40;32.27
40948;BME280;49382;-25.924;28.194;2023-05-02T07:16:47;85544.05;;;27.57;32.11
40948;BME280;49382;-25.924;28.194;2023-05-02T07:19:12;85546.77;;;27.69;30.69
40948;BME280;49382;-25.924;28.194;2023-05-02T07:21:38;85547.39;;;27.66;31.03
40948;BME280;49382;-25.924;28.194;2023-05-02T07:24:05;85548.40;;;27.76;30.44
40948;BME280;49382;-25.924;28.194;2023-05-02T07:26:30;85548.51;;;27.65;30.74
40948;BME280;49382;-25.924;28.194;2023-05-02T07:28:55;85550.37;;;28.27;29.91
40948;BME280;49382;-25.924;28.194;2023-05-02T07:31:21;85550.98;;;27.84;29.45
40948;BME280;49382;-25.924;28.194;2023-05-02T07:33:47;85549.25;;;28.51;30.37
40948;BME280;49382;-25.924;28.194;2023-05-02T07:36:12;85552.43;;;28.90;29.33
40948;BME280;49382;-25.924;28.194;2023-05-02T07:38:37;85550.56;;;29.59;28.90
40948;BME280;49382;-25.924;28.194;2023-05-02T07:41:03;85550.47;;;29.73;28.29
40948;BME280;49382;-25.924;28.194;2023-05-02T07:43:29;85549.68;;;28.83;28.69
40948;BME280;49382;-25.924;28.194;2023-05-02T07:45:54;85550.30;;;28.44;28.91
40948;BME280;49382;-25.924;28.194;2023-05-02T07:48:20;85553.97;;;28.70;29.28
40948;BME280;49382;-25.924;28.194;2023-05-02T07:50:46;85558.22;;;30.82;27.02
40948;BME280;49382;-25.924;28.194;2023-05-02T07:53:12;85556.12;;;33.55;24.23
40948;BME280;49382;-25.924;28.194;2023-05-02T07:55:37;85564.57;;;37.34;20.38
40948;BME280;49382;-25.924;28.194;2023-05-02T07:58:03;85559.62;;;41.22;17.33
40948;BME280;49382;-25.924;28.194;2023-05-02T08:00:28;85562.08;;;42.74;15.19
40948;BME280;49382;-25.924;28.194;2023-05-02T08:02:54;85563.37;;;44.68;13.52
40948;BME280;49382;-25.924;28.194;2023-05-02T08:05:20;85563.23;;;47.08;11.78
40948;BME280;49382;-25.924;28.194;2023-05-02T08:07:46;85561.91;;;45.63;12.00
40948;BME280;49382;-25.924;28.194;2023-05-02T08:10:11;85563.02;;;47.76;10.43
40948;BME280;49382;-25.924;28.194;2023-05-02T08:12:39;85561.31;;;47.20;10.65
40948;BME280;49382;-25.924;28.194;2023-05-02T08:15:05;85558.19;;;49.11;9.54
40948;BME280;49382;-25.924;28.194;2023-05-02T08:17:29;85560.60;;;50.28;8.65
40948;BME280;49382;-25.924;28.194;2023-05-02T08:19:54;85559.24;;;51.74;8.45
40948;BME280;49382;-25.924;28.194;2023-05-02T08:22:20;85555.58;;;50.96;8.29
40948;BME280;49382;-25.924;28.194;2023-05-02T08:24:46;85555.73;;;52.44;7.83
40948;BME280;49382;-25.924;28.194;2023-05-02T08:27:11;85551.72;;;50.66;8.01
40948;BME280;49382;-25.924;28.194;2023-05-02T08:29:36;85549.69;;;50.60;7.79
40948;BME280;49382;-25.924;28.194;2023-05-02T08:32:02;85555.42;;;52.84;7.52
40948;BME280;49382;-25.924;28.194;2023-05-02T08:34:28;85549.53;;;52.45;7.39
40948;BME280;49382;-25.924;28.194;2023-05-02T08:36:53;85541.03;;;49.24;8.79
40948;BME280;49382;-25.924;28.194;2023-05-02T08:39:19;85545.64;;;51.55;7.75
40948;BME280;49382;-25.924;28.194;2023-05-02T08:41:45;85545.16;;;52.27;7.46
40948;BME280;49382;-25.924;28.194;2023-05-02T08:44:11;85547.02;;;51.90;7.05
40948;BME280;49382;-25.924;28.194;2023-05-02T08:46:36;85540.83;;;48.48;8.70
40948;BME280;49382;-25.924;28.194;2023-05-02T08:49:02;85549.18;;;53.17;6.81
40948;BME280;49382;-25.924;28.194;2023-05-02T08:51:28;85539.94;;;47.81;8.78
40948;BME280;49382;-25.924;28.194;2023-05-02T08:53:54;85516.10;;;45.53;9.82
40948;BME280;49382;-25.924;28.194;2023-05-02T08:56:18;85503.56;;;38.70;13.71
40948;BME280;49382;-25.924;28.194;2023-05-02T08:58:44;85499.75;;;36.79;15.98
40948;BME280;49382;-25.924;28.194;2023-05-02T09:01:12;85497.35;;;35.03;17.87
40948;BME280;49382;-25.924;28.194;2023-05-02T09:03:36;85501.94;;;33.75;19.36
40948;BME280;49382;-25.924;28.194;2023-05-02T09:06:06;85498.58;;;33.55;20.75
40948;BME280;49382;-25.924;28.194;2023-05-02T09:08:26;85499.47;;;34.21;20.86
40948;BME280;49382;-25.924;28.194;2023-05-02T09:10:52;85495.54;;;32.78;21.97
40948;BME280;49382;-25.924;28.194;2023-05-02T09:15:49;85485.64;;;31.80;23.68
40948;BME280;49382;-25.924;28.194;2023-05-02T09:18:08;85484.84;;;30.27;25.67
40948;BME280;49382;-25.924;28.194;2023-05-02T09:20:39;85480.94;;;30.50;25.38
40948;BME280;49382;-25.924;28.194;2023-05-02T09:22:59;85479.89;;;31.20;24.98
40948;BME280;49382;-25.924;28.194;2023-05-02T09:25:24;85477.47;;;30.86;25.06
40948;BME280;49382;-25.924;28.194;2023-05-02T09:27:51;85475.88;;;30.40;25.65
40948;BME280;49382;-25.924;28.194;2023-05-02T09:30:20;85473.26;;;30.34;25.51
40948;BME280;49382;-25.924;28.194;2023-05-02T09:32:46;85471.26;;;31.06;24.33
40948;BME280;49382;-25.924;28.194;2023-05-02T09:35:07;85466.08;;;30.10;25.20
40948;BME280;49382;-25.924;28.194;2023-05-02T09:37:35;85467.58;;;30.51;25.75
40948;BME280;49382;-25.924;28.194;2023-05-02T09:40:05;85467.55;;;30.99;26.22
40948;BME280;49382;-25.924;28.194;2023-05-02T09:42:29;85456.35;;;29.99;26.92
40948;BME280;49382;-25.924;28.194;2023-05-02T09:44:48;85455.77;;;30.02;26.16
40948;BME280;49382;-25.924;28.194;2023-05-02T09:49:40;85450.85;;;29.94;26.42
40948;BME280;49382;-25.924;28.194;2023-05-02T09:52:09;85449.93;;;29.87;27.18
40948;BME280;49382;-25.924;28.194;2023-05-02T09:54:35;85440.63;;;29.11;27.02
40948;BME280;49382;-25.924;28.194;2023-05-02T09:56:56;85439.98;;;29.36;26.95
40948;BME280;49382;-25.924;28.194;2023-05-02T09:59:22;85433.29;;;30.08;26.74
40948;BME280;49382;-25.924;28.194;2023-05-02T10:01:55;85436.43;;;28.21;28.63
40948;BME280;49382;-25.924;28.194;2023-05-02T10:04:13;85432.51;;;27.51;28.95
40948;BME280;49382;-25.924;28.194;2023-05-02T10:06:38;85433.29;;;29.09;27.75
40948;BME280;49382;-25.924;28.194;2023-05-02T10:09:04;85430.58;;;29.19;28.88
40948;BME280;49382;-25.924;28.194;2023-05-02T10:11:32;85431.44;;;28.35;28.91
40948;BME280;49382;-25.924;28.194;2023-05-02T10:13:56;85430.16;;;29.24;28.38
40948;BME280;49382;-25.924;28.194;2023-05-02T10:16:26;85421.20;;;28.09;29.40
40948;BME280;49382;-25.924;28.194;2023-05-02T10:18:50;85414.58;;;29.48;28.71
40948;BME280;49382;-25.924;28.194;2023-05-02T10:21:16;85413.58;;;29.50;28.88
40948;BME280;49382;-25.924;28.194;2023-05-02T10:23:42;85409.54;;;29.37;28.42
40948;BME280;49382;-25.924;28.194;2023-05-02T10:26:04;85403.21;;;29.01;27.60
40948;BME280;49382;-25.924;28.194;2023-05-02T10:28:30;85402.93;;;28.62;28.01
40948;BME280;49382;-25.924;28.194;2023-05-02T10:30:57;85401.60;;;27.85;28.74
40948;BME280;49382;-25.924;28.194;2023-05-02T10:33:22;85398.68;;;28.33;28.26
40948;BME280;49382;-25.924;28.194;2023-05-02T10:35:46;85397.22;;;28.82;28.86
40948;BME280;49382;-25.924;28.194;2023-05-02T10:38:13;85398.72;;;28.65;29.47
40948;BME280;49382;-25.924;28.194;2023-05-02T10:40:39;85396.76;;;29.03;28.73
40948;BME280;49382;-25.924;28.194;2023-05-02T10:43:03;85396.09;;;29.05;28.94
40948;BME280;49382;-25.924;28.194;2023-05-02T10:45:32;85393.33;;;29.37;28.54
40948;BME280;49382;-25.924;28.194;2023-05-02T10:50:19;85387.39;;;29.40;29.04
40948;BME280;49382;-25.924;28.194;2023-05-02T10:52:45;85380.52;;;28.62;30.64
40948;BME280;49382;-25.924;28.194;2023-05-02T10:55:15;85378.11;;;28.88;28.95
40948;BME280;49382;-25.924;28.194;2023-05-02T11:04:58;85369.93;;;28.70;29.09
40948;BME280;49382;-25.924;28.194;2023-05-02T11:07:19;85366.98;;;28.62;28.97
40948;BME280;49382;-25.924;28.194;2023-05-02T11:09:45;85365.32;;;27.98;29.87
40948;BME280;49382;-25.924;28.194;2023-05-02T11:12:11;85361.21;;;28.51;29.61
40948;BME280;49382;-25.924;28.194;2023-05-02T11:14:42;85357.33;;;29.07;28.65
40948;BME280;49382;-25.924;28.194;2023-05-02T11:17:07;85351.97;;;28.78;28.33
40948;BME280;49382;-25.924;28.194;2023-05-02T11:19:29;85351.76;;;28.47;29.26
40948;BME280;49382;-25.924;28.194;2023-05-02T11:26:45;85344.12;;;28.06;29.25
40948;BME280;49382;-25.924;28.194;2023-05-02T11:29:11;85343.61;;;28.72;28.05
40948;BME280;49382;-25.924;28.194;2023-05-02T11:34:03;85341.01;;;28.62;28.04
40948;BME280;49382;-25.924;28.194;2023-05-02T11:36:28;85336.88;;;28.00;28.49
40948;BME280;49382;-25.924;28.194;2023-05-02T11:38:54;85336.92;;;28.00;28.43
40948;BME280;49382;-25.924;28.194;2023-05-02T11:41:19;85332.31;;;27.98;28.77
40948;BME280;49382;-25.924;28.194;2023-05-02T11:43:45;85331.26;;;28.64;29.20
40948;BME280;49382;-25.924;28.194;2023-05-02T11:46:11;85330.18;;;28.71;29.16
40948;BME280;49382;-25.924;28.194;2023-05-02T11:48:36;85322.90;;;27.58;29.16
40948;BME280;49382;-25.924;28.194;2023-05-02T11:51:02;85325.95;;;28.81;28.60
40948;BME280;49382;-25.924;28.194;2023-05-02T11:53:28;85323.37;;;27.89;29.35
40948;BME280;49382;-25.924;28.194;2023-05-02T11:55:55;85318.32;;;27.59;29.12
40948;BME280;49382;-25.924;28.194;2023-05-02T11:58:21;85313.33;;;27.01;29.35
40948;BME280;49382;-25.924;28.194;2023-05-02T12:00:45;85312.13;;;27.94;29.40
40948;BME280;49382;-25.924;28.194;2023-05-02T12:03:19;85309.09;;;27.62;29.20
40948;BME280;49382;-25.924;28.194;2023-05-02T12:05:36;85307.95;;;27.76;28.65
40948;BME280;49382;-25.924;28.194;2023-05-02T12:08:02;85305.41;;;27.66;28.81
40948;BME280;49382;-25.924;28.194;2023-05-02T12:10:36;85303.98;;;27.95;28.63
40948;BME280;49382;-25.924;28.194;2023-05-02T12:13:02;85301.66;;;27.06;30.40
40948;BME280;49382;-25.924;28.194;2023-05-02T12:15:19;85301.11;;;27.43;30.00
40948;BME280;49382;-25.924;28.194;2023-05-02T12:17:47;85297.31;;;28.02;28.91
40948;BME280;49382;-25.924;28.194;2023-05-02T12:20:11;85293.71;;;27.69;29.04
40948;BME280;49382;-25.924;28.194;2023-05-02T12:22:37;85290.55;;;28.45;27.84
40948;BME280;49382;-25.924;28.194;2023-05-02T12:25:04;85286.04;;;27.66;28.97
40948;BME280;49382;-25.924;28.194;2023-05-02T12:27:28;85280.19;;;28.07;28.38
40948;BME280;49382;-25.924;28.194;2023-05-02T12:29:54;85285.21;;;28.13;29.10
40948;BME280;49382;-25.924;28.194;2023-05-02T12:32:27;85277.64;;;27.05;29.38
40948;BME280;49382;-25.924;28.194;2023-05-02T12:34:45;85273.99;;;28.04;28.97
40948;BME280;49382;-25.924;28.194;2023-05-02T12:37:11;85277.89;;;26.95;29.72
40948;BME280;49382;-25.924;28.194;2023-05-02T12:39:38;85275.69;;;26.90;29.52
40948;BME280;49382;-25.924;28.194;2023-05-02T12:42:08;85269.28;;;27.63;28.87
40948;BME280;49382;-25.924;28.194;2023-05-02T12:44:35;85268.99;;;28.36;28.45
40948;BME280;49382;-25.924;28.194;2023-05-02T12:46:58;85268.25;;;27.24;29.02
40948;BME280;49382;-25.924;28.194;2023-05-02T12:49:20;85270.00;;;27.43;29.15
40948;BME280;49382;-25.924;28.194;2023-05-02T12:51:52;85269.96;;;27.72;28.73